Time;durP1;ratioP1;P1;durP2;ratioP2;P2;SDS_P1;SDS_P2;PMS_P1;PMS_P2;Temp;Humidity;BMP_temperature;BMP_pressure;BME280_temperature;BME280_humidity;BME280_pressure;Samples;Min_cycle;Max_cycle;Signal;HPM_P1;HPM_P2
2021/12/13 00:01:20;;;;;;;229.40;35.45;;;9.60;99.90;;;;;;6273808;22;20474;-72
2021/12/13 00:04:17;;;;;;;241.00;35.65;;;9.50;99.90;;;;;;6271710;22;20039;-71
2021/12/13 00:06:57;;;;;;;255.75;34.78;;;9.50;99.90;;;;;;6273381;22;20019;-71
2021/12/13 00:09:25;;;;;;;236.20;33.45;;;9.40;99.90;;;;;;6274251;22;20016;-71
2021/12/13 00:12:03;;;;;;;274.90;37.42;;;9.40;99.90;;;;;;6273014;22;20090;-71
2021/12/13 00:14:36;;;;;;;259.42;36.28;;;9.40;99.90;;;;;;6274127;22;20562;-71
2021/12/13 00:17:14;;;;;;;248.60;39.78;;;9.40;99.90;;;;;;6299237;22;20060;-71
2021/12/13 00:19:43;;;;;;;200.70;34.10;;;9.40;99.90;;;;;;6274177;22;20445;-72
2021/12/13 00:22:19;;;;;;;222.88;36.47;;;9.40;99.90;;;;;;6304147;22;20458;-71
2021/12/13 00:24:46;;;;;;;195.73;34.92;;;9.50;99.90;;;;;;6302252;22;20127;-71
2021/12/13 00:27:19;;;;;;;166.10;32.95;;;9.50;99.90;;;;;;6273804;22;20022;-71
2021/12/13 00:29:57;;;;;;;154.30;32.42;;;9.50;99.90;;;;;;6274682;22;20019;-71
2021/12/13 00:32:32;;;;;;;146.10;31.70;;;9.50;99.90;;;;;;6300516;22;20016;-71
2021/12/13 00:35:00;;;;;;;108.57;27.75;;;9.60;99.90;;;;;;6273627;22;20356;-71
2021/12/13 00:37:57;;;;;;;107.05;27.42;;;9.60;99.90;;;;;;6273180;22;20098;-71
2021/12/13 00:40:30;;;;;;;82.53;23.08;;;9.60;99.90;;;;;;6273282;22;20019;-71
2021/12/13 00:43:19;;;;;;;126.18;27.95;;;9.70;99.90;;;;;;6273152;22;20019;-71
2021/12/13 00:46:00;;;;;;;100.53;25.50;;;9.70;99.90;;;;;;6273852;22;20546;-71
2021/12/13 00:48:30;;;;;;;88.70;24.15;;;9.70;99.90;;;;;;6300538;22;20058;-71
2021/12/13 00:51:03;;;;;;;93.70;23.35;;;9.80;99.90;;;;;;6272927;22;20027;-71
2021/12/13 00:53:34;;;;;;;60.50;19.17;;;9.80;99.90;;;;;;6272713;22;20038;-71
2021/12/13 00:56:20;;;;;;;71.60;20.60;;;9.80;99.90;;;;;;6272494;22;20084;-71
2021/12/13 00:58:48;;;;;;;61.25;18.60;;;9.80;99.90;;;;;;6273985;22;20023;-71
2021/12/13 01:01:15;;;;;;;53.35;17.52;;;9.80;99.90;;;;;;6270346;22;20027;-71
2021/12/13 01:03:46;;;;;;;76.70;21.58;;;9.80;99.90;;;;;;6272040;22;20077;-71
2021/12/13 01:06:11;;;;;;;73.10;21.25;;;9.80;99.90;;;;;;6273160;22;20024;-71
2021/12/13 01:09:15;;;;;;;70.45;20.70;;;9.80;99.90;;;;;;6304087;22;20313;-71
2021/12/13 01:11:59;;;;;;;59.25;16.95;;;9.80;99.90;;;;;;6301112;22;20082;-71
2021/12/13 01:14:28;;;;;;;74.78;19.60;;;9.80;99.90;;;;;;6301246;22;20404;-71
2021/12/13 01:17:05;;;;;;;80.20;21.20;;;9.80;99.90;;;;;;6298272;22;20023;-71
2021/12/13 01:19:52;;;;;;;85.78;22.65;;;9.80;99.90;;;;;;6273235;22;20455;-70
2021/12/13 01:22:49;;;;;;;97.38;24.08;;;9.80;99.90;;;;;;6275210;22;20026;-70
2021/12/13 01:25:59;;;;;;;97.32;23.10;;;9.80;99.90;;;;;;6275718;22;20023;-70
2021/12/13 01:28:32;;;;;;;86.88;22.52;;;9.80;99.90;;;;;;6273543;22;20439;-70
2021/12/13 01:31:03;;;;;;;75.28;21.92;;;9.70;99.90;;;;;;6275115;22;20506;-71
2021/12/13 01:33:31;;;;;;;80.97;23.83;;;9.80;99.90;;;;;;6273215;22;20034;-71
2021/12/13 01:36:01;;;;;;;85.45;24.17;;;9.70;99.90;;;;;;6301101;22;20117;-71
2021/12/13 01:38:34;;;;;;;86.25;24.30;;;9.70;99.90;;;;;;6302227;22;20343;-71
2021/12/13 01:41:08;;;;;;;91.10;24.08;;;9.70;99.90;;;;;;6274369;22;20049;-71
2021/12/13 01:43:37;;;;;;;88.65;24.10;;;9.70;99.90;;;;;;6302027;22;20340;-70
2021/12/13 01:46:02;;;;;;;96.18;25.30;;;9.70;99.90;;;;;;6300899;22;20033;-71
2021/12/13 01:48:33;;;;;;;97.05;24.63;;;9.70;99.90;;;;;;6272619;22;20019;-71
2021/12/13 01:51:05;;;;;;;55.03;18.02;;;9.70;99.90;;;;;;6275840;22;20046;-71
2021/12/13 01:53:39;;;;;;;71.53;22.30;;;9.70;99.90;;;;;;6274950;22;20022;-71
2021/12/13 01:56:23;;;;;;;88.60;22.48;;;9.70;99.90;;;;;;6274037;22;20023;-71
2021/12/13 01:58:50;;;;;;;73.28;21.83;;;9.70;99.90;;;;;;6274444;22;20018;-71
2021/12/13 02:01:24;;;;;;;75.93;21.92;;;9.60;99.90;;;;;;6300565;22;20090;-71
2021/12/13 02:03:56;;;;;;;80.28;20.92;;;9.60;99.90;;;;;;6272946;22;20053;-71
2021/12/13 02:06:30;;;;;;;62.45;20.77;;;9.70;99.90;;;;;;6301561;22;20098;-72
2021/12/13 02:09:01;;;;;;;73.32;21.67;;;9.60;99.90;;;;;;6303204;22;20114;-72
2021/12/13 02:11:30;;;;;;;64.28;20.25;;;9.60;99.90;;;;;;6302156;22;20015;-71
2021/12/13 02:14:07;;;;;;;65.50;18.77;;;9.60;99.90;;;;;;6273902;22;20019;-71
2021/12/13 02:19:34;;;;;;;48.53;15.10;;;9.60;99.90;;;;;;6301056;22;20429;-71
2021/12/13 02:22:36;;;;;;;56.92;16.17;;;9.60;99.90;;;;;;6302718;22;20030;-72
2021/12/13 02:25:26;;;;;;;49.25;15.15;;;9.70;99.90;;;;;;6272582;22;20015;-72
2021/12/13 02:28:17;;;;;;;50.75;14.50;;;9.70;99.90;;;;;;6273612;22;20355;-71
2021/12/13 02:30:54;;;;;;;42.97;13.77;;;9.70;99.90;;;;;;6254425;22;20094;-71
2021/12/13 02:33:42;;;;;;;48.75;11.27;;;9.70;99.90;;;;;;6300891;22;20098;-71
2021/12/13 02:36:15;;;;;;;46.33;13.32;;;9.60;99.90;;;;;;6300570;22;20019;-72
2021/12/13 02:38:46;;;;;;;40.45;11.27;;;9.70;99.90;;;;;;6273895;22;20015;-71
2021/12/13 02:41:13;;;;;;;43.63;13.30;;;9.60;99.90;;;;;;6273513;22;20046;-72
2021/12/13 02:43:43;;;;;;;31.15;10.73;;;9.60;99.90;;;;;;6274905;22;20485;-71
2021/12/13 02:46:11;;;;;;;41.20;12.50;;;9.60;99.90;;;;;;6273614;22;20023;-72
2021/12/13 02:48:40;;;;;;;40.85;12.55;;;9.60;99.90;;;;;;6273030;22;20016;-72
2021/12/13 02:51:18;;;;;;;46.25;12.00;;;9.60;99.90;;;;;;6301404;22;20451;-71
2021/12/13 02:53:57;;;;;;;42.58;12.55;;;9.60;99.90;;;;;;6300851;22;20011;-72
2021/12/13 02:56:29;;;;;;;46.72;10.73;;;9.60;99.90;;;;;;6299842;22;20055;-71
2021/12/13 02:58:57;;;;;;;38.42;10.70;;;9.60;99.90;;;;;;6301625;22;20015;-72
2021/12/13 03:01:27;;;;;;;37.28;10.55;;;9.60;99.90;;;;;;6300914;22;20017;-72
2021/12/13 03:03:55;;;;;;;37.03;11.45;;;9.60;99.90;;;;;;6274126;22;20015;-72
2021/12/13 03:06:30;;;;;;;41.00;11.13;;;9.60;99.90;;;;;;6273654;22;20098;-72
2021/12/13 03:09:07;;;;;;;39.10;11.40;;;9.60;99.90;;;;;;6274662;22;20043;-72
2021/12/13 03:11:34;;;;;;;24.20;9.05;;;9.60;99.90;;;;;;6273705;22;20066;-72
2021/12/13 03:14:16;;;;;;;25.60;8.43;;;9.60;99.90;;;;;;6274041;22;20500;-72
2021/12/13 03:16:50;;;;;;;21.40;6.20;;;9.60;99.90;;;;;;6266374;22;20026;-73
2021/12/13 03:19:29;;;;;;;28.20;7.85;;;9.60;99.90;;;;;;6242662;22;20031;-72
2021/12/13 03:22:16;;;;;;;34.35;7.82;;;9.60;99.90;;;;;;6239898;22;20015;-72
2021/12/13 03:25:01;;;;;;;30.95;8.68;;;9.60;99.90;;;;;;6241941;22;20064;-72
2021/12/13 03:27:51;;;;;;;19.05;6.32;;;9.60;99.90;;;;;;6242594;22;20578;-72
2021/12/13 03:30:28;;;;;;;30.67;10.02;;;9.60;99.90;;;;;;6266235;22;20061;-72
2021/12/13 03:33:04;;;;;;;28.45;8.57;;;9.50;99.90;;;;;;6240285;22;20054;-72
2021/12/13 03:35:53;;;;;;;31.25;9.50;;;9.50;99.90;;;;;;6267243;22;20452;-72
2021/12/13 03:38:34;;;;;;;30.95;9.50;;;9.50;99.90;;;;;;6242095;22;20012;-72
2021/12/13 03:41:08;;;;;;;27.83;10.55;;;9.50;99.90;;;;;;6269268;22;20016;-72
2021/12/13 03:43:40;;;;;;;31.90;10.10;;;9.50;99.90;;;;;;6269992;22;20015;-72
2021/12/13 03:46:08;;;;;;;33.37;9.80;;;9.50;99.90;;;;;;6270701;22;20011;-72
2021/12/13 03:48:36;;;;;;;25.05;10.93;;;9.50;99.90;;;;;;6242184;22;20085;-72
2021/12/13 03:51:06;;;;;;;24.60;9.13;;;9.50;99.90;;;;;;6243304;22;20043;-72
2021/12/13 03:53:34;;;;;;;26.98;8.68;;;9.40;99.90;;;;;;6274997;22;20026;-73
2021/12/13 03:56:10;;;;;;;28.92;9.48;;;9.40;99.90;;;;;;6303809;22;20015;-71
2021/12/13 03:58:40;;;;;;;26.60;9.82;;;9.40;99.90;;;;;;6303478;22;20041;-71
2021/12/13 04:01:11;;;;;;;26.80;11.02;;;9.40;99.90;;;;;;6303331;22;20097;-72
2021/12/13 04:03:38;;;;;;;30.55;10.82;;;9.30;99.90;;;;;;6274104;22;20102;-72
2021/12/13 04:06:04;;;;;;;31.70;10.20;;;9.30;99.90;;;;;;6276138;22;20015;-72
2021/12/13 04:08:30;;;;;;;26.10;9.95;;;9.30;99.90;;;;;;6275802;22;20497;-72
2021/12/13 04:11:03;;;;;;;17.52;6.97;;;9.20;99.90;;;;;;6275798;22;20019;-72
2021/12/13 04:13:34;;;;;;;16.97;5.37;;;9.20;99.90;;;;;;6276159;22;20320;-72
2021/12/13 04:16:15;;;;;;;10.82;3.90;;;9.20;99.90;;;;;;6275087;22;20027;-72
2021/12/13 04:21:28;;;;;;;13.23;4.15;;;9.20;99.90;;;;;;6302615;22;20027;-72
2021/12/13 04:24:00;;;;;;;14.15;4.47;;;9.30;99.90;;;;;;6301755;22;20019;-72
2021/12/13 04:26:27;;;;;;;16.02;4.07;;;9.20;99.90;;;;;;6276007;22;20030;-72
2021/12/13 04:28:57;;;;;;;10.70;3.83;;;9.20;99.90;;;;;;6275015;22;20050;-72
2021/12/13 04:31:26;;;;;;;12.52;3.25;;;9.20;99.90;;;;;;6274680;22;20022;-72
2021/12/13 04:33:58;;;;;;;8.45;3.65;;;9.20;99.90;;;;;;6271832;22;20023;-73
2021/12/13 04:36:34;;;;;;;13.40;3.65;;;9.20;99.90;;;;;;6275537;22;20054;-72
2021/12/13 04:39:05;;;;;;;12.95;3.92;;;9.30;99.90;;;;;;6273857;22;20381;-72
2021/12/13 04:41:48;;;;;;;12.90;3.72;;;9.30;99.90;;;;;;6302111;22;20027;-72
2021/12/13 04:44:22;;;;;;;12.27;4.38;;;9.30;99.90;;;;;;6273698;22;20053;-73
2021/12/13 04:46:52;;;;;;;9.10;4.80;;;9.30;99.90;;;;;;6273527;22;20335;-73
2021/12/13 04:49:22;;;;;;;9.95;5.20;;;9.30;99.90;;;;;;6273381;22;20076;-72
2021/12/13 04:51:56;;;;;;;13.93;6.55;;;9.30;99.90;;;;;;6302293;22;20011;-72
2021/12/13 04:54:24;;;;;;;12.00;6.45;;;9.30;99.90;;;;;;6301848;22;20030;-72
2021/12/13 04:56:51;;;;;;;12.65;6.20;;;9.20;99.90;;;;;;6274546;22;20015;-72
2021/12/13 04:59:18;;;;;;;11.90;6.43;;;9.20;99.90;;;;;;6273508;22;20098;-73
2021/12/13 05:01:48;;;;;;;13.18;7.28;;;9.20;99.90;;;;;;6271315;22;20328;-72
2021/12/13 05:04:14;;;;;;;10.48;6.60;;;9.20;99.90;;;;;;6274526;22;20012;-72
2021/12/13 05:06:42;;;;;;;20.13;8.27;;;9.20;99.90;;;;;;6271794;22;20110;-72
2021/12/13 05:09:12;;;;;;;15.05;8.55;;;9.20;99.90;;;;;;6301768;22;20017;-73
2021/12/13 05:11:55;;;;;;;14.55;8.82;;;9.10;99.90;;;;;;6302540;22;20022;-72
2021/12/13 05:14:42;;;;;;;19.63;9.57;;;9.10;99.90;;;;;;6300851;22;20019;-72
2021/12/13 05:17:23;;;;;;;16.52;9.20;;;9.10;99.90;;;;;;6271387;22;20169;-72
2021/12/13 05:19:57;;;;;;;19.02;8.55;;;9.10;99.90;;;;;;6271644;22;20098;-72
2021/12/13 05:22:24;;;;;;;15.73;8.57;;;9.00;99.90;;;;;;6275224;22;20054;-72
2021/12/13 05:25:00;;;;;;;15.70;9.43;;;9.00;99.90;;;;;;6274824;22;20077;-72
2021/12/13 05:27:39;;;;;;;21.20;9.77;;;9.00;99.90;;;;;;6273855;22;20030;-72
2021/12/13 05:30:08;;;;;;;17.23;9.32;;;9.00;99.90;;;;;;6274095;22;20031;-72
2021/12/13 05:32:39;;;;;;;19.60;9.40;;;9.00;99.90;;;;;;6300169;22;20467;-73
2021/12/13 05:35:17;;;;;;;17.50;9.75;;;9.00;99.90;;;;;;6301688;22;20033;-73
2021/12/13 05:37:55;;;;;;;21.67;10.45;;;9.00;99.90;;;;;;6275461;22;20023;-73
2021/12/13 05:40:25;;;;;;;17.42;9.70;;;9.00;99.90;;;;;;6273661;22;20015;-73
2021/12/13 05:42:57;;;;;;;19.50;10.23;;;9.00;99.90;;;;;;6303289;22;20114;-74
2021/12/13 05:45:35;;;;;;;17.90;10.30;;;9.00;99.90;;;;;;6274192;22;20023;-73
2021/12/13 05:48:09;;;;;;;19.10;10.45;;;9.00;99.90;;;;;;6298501;22;20393;-72
2021/12/13 05:51:07;;;;;;;22.08;11.73;;;9.00;99.90;;;;;;6300234;22;20102;-75
2021/12/13 05:53:43;;;;;;;21.83;12.27;;;9.00;99.90;;;;;;6216084;22;20546;-74
2021/12/13 05:56:12;;;;;;;20.58;11.57;;;9.00;99.90;;;;;;6299765;22;20106;-73
2021/12/13 05:58:44;;;;;;;22.40;11.65;;;9.00;99.90;;;;;;6273772;22;20033;-74
2021/12/13 06:01:15;;;;;;;21.55;10.93;;;9.00;99.90;;;;;;6273420;22;20088;-74
2021/12/13 06:04:04;;;;;;;18.55;11.25;;;9.00;99.90;;;;;;6272875;22;20026;-74
2021/12/13 06:06:31;;;;;;;18.77;10.98;;;9.00;99.90;;;;;;6242218;22;20039;-73
2021/12/13 06:08:58;;;;;;;16.98;10.05;;;9.00;99.90;;;;;;6272011;22;20399;-74
2021/12/13 06:11:33;;;;;;;17.52;10.70;;;9.00;99.90;;;;;;6274550;22;20022;-72
2021/12/13 06:14:18;;;;;;;19.15;10.77;;;9.00;99.90;;;;;;6301878;22;20050;-75
2021/12/13 06:16:49;;;;;;;17.20;9.70;;;9.00;99.90;;;;;;6275169;22;20098;-72
2021/12/13 06:19:38;;;;;;;16.80;10.60;;;9.00;99.90;;;;;;6303814;22;20043;-72
2021/12/13 06:22:06;;;;;;;17.65;10.65;;;9.00;99.90;;;;;;6301729;22;20470;-73
2021/12/13 06:24:32;;;;;;;16.02;9.18;;;9.00;99.90;;;;;;6300683;22;20459;-73
2021/12/13 06:27:14;;;;;;;17.13;8.60;;;9.00;99.90;;;;;;6301118;22;20025;-71
2021/12/13 06:29:59;;;;;;;18.00;10.23;;;9.00;99.90;;;;;;6300224;22;20069;-73
2021/12/13 06:32:49;;;;;;;18.83;8.68;;;9.00;99.90;;;;;;6299567;22;20019;-74
2021/12/13 06:35:37;;;;;;;17.08;9.73;;;9.00;99.90;;;;;;6299245;22;20482;-72
2021/12/13 06:38:24;;;;;;;16.35;9.57;;;9.00;99.90;;;;;;6299747;22;20019;-72
2021/12/13 06:40:55;;;;;;;17.63;11.00;;;9.00;99.90;;;;;;6299955;22;20519;-74
2021/12/13 06:43:34;;;;;;;20.00;11.13;;;9.00;99.90;;;;;;6269288;22;20042;-75
2021/12/13 06:46:03;;;;;;;20.48;11.27;;;9.00;99.90;;;;;;6272932;22;20025;-74
2021/12/13 06:48:45;;;;;;;15.55;9.63;;;9.00;99.90;;;;;;6264461;22;20355;-73
2021/12/13 06:51:18;;;;;;;18.20;10.75;;;9.00;99.90;;;;;;6298070;22;20431;-73
2021/12/13 06:54:06;;;;;;;18.45;11.02;;;9.00;99.90;;;;;;6275057;22;20033;-74
2021/12/13 06:56:34;;;;;;;18.42;12.50;;;9.00;99.90;;;;;;6300862;22;20079;-73
2021/12/13 06:59:02;;;;;;;20.05;12.07;;;9.00;99.90;;;;;;6270548;22;20095;-73
2021/12/13 07:01:31;;;;;;;17.30;11.13;;;9.00;99.90;;;;;;6300318;22;20015;-74
2021/12/13 07:04:03;;;;;;;17.45;10.93;;;9.00;99.90;;;;;;6299498;22;20015;-74
2021/12/13 07:06:29;;;;;;;20.17;12.40;;;9.00;99.90;;;;;;6299435;22;20530;-74
2021/12/13 07:09:17;;;;;;;20.55;12.55;;;9.00;99.90;;;;;;6300204;22;20019;-72
2021/12/13 07:11:53;;;;;;;19.52;13.50;;;9.00;99.90;;;;;;6300342;22;20054;-72
2021/12/13 07:14:36;;;;;;;19.20;12.75;;;9.00;99.90;;;;;;6273164;22;20409;-72
2021/12/13 07:17:18;;;;;;;18.88;12.82;;;9.00;99.90;;;;;;6301980;22;20225;-73
2021/12/13 07:19:47;;;;;;;22.33;13.43;;;9.00;99.90;;;;;;6299669;22;20019;-73
2021/12/13 07:22:19;;;;;;;21.65;13.30;;;9.00;99.90;;;;;;6301147;22;20419;-73
2021/12/13 07:24:53;;;;;;;21.45;13.95;;;9.00;99.90;;;;;;6299417;22;20022;-73
2021/12/13 07:27:29;;;;;;;21.27;13.48;;;9.00;99.90;;;;;;6290062;22;20022;-73
2021/12/13 07:30:06;;;;;;;21.23;13.95;;;9.00;99.90;;;;;;6303878;22;20365;-73
2021/12/13 07:32:36;;;;;;;24.00;14.73;;;9.00;99.90;;;;;;6273969;22;20354;-73
2021/12/13 07:35:12;;;;;;;24.10;15.70;;;9.10;99.90;;;;;;6300829;22;20023;-72
2021/12/13 07:37:47;;;;;;;19.45;14.63;;;9.10;99.90;;;;;;6300178;22;20026;-70
2021/12/13 07:40:18;;;;;;;23.70;14.00;;;9.00;99.90;;;;;;6301336;22;20357;-71
2021/12/13 07:42:59;;;;;;;19.52;14.20;;;9.10;99.90;;;;;;6300077;22;20482;-70
2021/12/13 07:45:38;;;;;;;23.52;13.70;;;9.10;99.90;;;;;;6275294;22;20013;-70
2021/12/13 07:48:09;;;;;;;20.20;12.60;;;9.10;99.90;;;;;;6272760;22;20192;-71
2021/12/13 07:50:36;;;;;;;25.48;14.98;;;9.10;99.90;;;;;;6272275;22;20011;-71
2021/12/13 07:53:08;;;;;;;21.55;14.13;;;9.10;99.90;;;;;;6270506;22;20339;-71
2021/12/13 07:55:39;;;;;;;19.23;13.52;;;9.10;99.90;;;;;;6246544;22;20030;-72
2021/12/13 07:58:06;;;;;;;25.92;16.55;;;9.10;99.90;;;;;;6272926;22;20019;-72
2021/12/13 08:00:40;;;;;;;23.92;15.38;;;9.10;99.90;;;;;;6274557;22;20488;-71
2021/12/13 08:03:13;;;;;;;20.33;14.05;;;9.10;99.90;;;;;;6271507;22;20068;-71
2021/12/13 08:05:42;;;;;;;22.05;16.08;;;9.10;99.90;;;;;;6302372;22;20381;-71
2021/12/13 08:08:25;;;;;;;21.63;16.15;;;9.10;99.90;;;;;;6297809;22;20015;-71
2021/12/13 08:10:57;;;;;;;20.60;14.23;;;9.10;99.90;;;;;;6274042;22;20021;-71
2021/12/13 08:13:30;;;;;;;23.33;14.45;;;9.10;99.90;;;;;;6301463;22;20042;-71
2021/12/13 08:16:03;;;;;;;16.60;12.85;;;9.10;99.90;;;;;;6301764;22;20477;-71
2021/12/13 08:18:41;;;;;;;21.65;14.68;;;9.10;99.90;;;;;;6298737;22;20019;-71
2021/12/13 08:21:20;;;;;;;21.10;13.43;;;9.10;99.90;;;;;;6303090;22;20150;-70
2021/12/13 08:23:56;;;;;;;22.85;15.73;;;9.10;99.90;;;;;;6301836;22;20560;-71
2021/12/13 08:26:32;;;;;;;22.40;14.60;;;9.10;99.90;;;;;;6301855;22;20019;-70
2021/12/13 08:29:01;;;;;;;24.17;14.38;;;9.10;99.90;;;;;;6303345;22;20008;-71
2021/12/13 08:31:34;;;;;;;26.23;16.58;;;9.20;99.90;;;;;;6274599;22;20442;-71
2021/12/13 08:34:07;;;;;;;25.48;16.13;;;9.20;99.90;;;;;;6299164;22;20012;-72
2021/12/13 08:36:37;;;;;;;25.98;15.40;;;9.20;99.90;;;;;;6302485;22;20102;-72
2021/12/13 08:39:26;;;;;;;18.42;12.77;;;9.20;99.90;;;;;;6303586;22;20015;-72
2021/12/13 08:42:09;;;;;;;16.98;12.65;;;9.20;99.90;;;;;;6302846;22;20007;-72
2021/12/13 08:44:46;;;;;;;22.88;12.00;;;9.20;99.90;;;;;;6302180;22;20027;-72
2021/12/13 08:47:19;;;;;;;16.30;12.15;;;9.20;99.90;;;;;;6302193;22;20085;-72
2021/12/13 08:49:47;;;;;;;;;;;9.20;99.90;;;;;;6302879;22;20042;-72
2021/12/13 08:52:34;;;;;;;20.15;11.57;;;9.20;99.90;;;;;;6301196;22;19915;-71
2021/12/13 08:55:12;;;;;;;19.02;12.73;;;9.20;99.90;;;;;;6301467;22;20072;-72
2021/12/13 08:57:49;;;;;;;22.50;14.07;;;9.20;99.90;;;;;;6300242;22;20023;-72
2021/12/13 09:00:37;;;;;;;18.48;13.30;;;9.20;99.90;;;;;;6300524;22;20490;-72
2021/12/13 09:03:40;;;;;;;15.32;10.55;;;9.20;99.90;;;;;;6273514;22;20091;-72
2021/12/13 09:06:18;;;;;;;16.45;10.80;;;9.20;99.90;;;;;;6274579;22;20077;-71
2021/12/13 09:09:10;;;;;;;12.68;9.13;;;9.20;99.90;;;;;;6275726;22;20039;-71
2021/12/13 09:11:59;;;;;;;19.50;11.87;;;9.30;99.90;;;;;;6274153;22;20501;-72
2021/12/13 09:14:31;;;;;;;16.40;10.90;;;9.30;99.90;;;;;;6274753;22;20375;-71
2021/12/13 09:17:13;;;;;;;18.58;11.68;;;9.30;99.90;;;;;;6274152;22;20030;-71
2021/12/13 09:19:47;;;;;;;17.13;11.23;;;9.30;99.90;;;;;;6272468;22;20019;-72
2021/12/13 09:22:37;;;;;;;22.00;11.45;;;9.30;99.90;;;;;;6274789;22;20087;-72
2021/12/13 09:25:40;;;;;;;15.80;10.80;;;9.30;99.90;;;;;;6275082;22;20477;-71
2021/12/13 09:28:23;;;;;;;15.83;11.43;;;9.30;99.90;;;;;;6273877;22;20082;-71
2021/12/13 09:30:56;;;;;;;16.27;10.63;;;9.30;99.90;;;;;;6302692;22;20170;-72
2021/12/13 09:33:24;;;;;;;;;;;9.30;99.90;;;;;;6300976;22;20332;-72
2021/12/13 09:36:04;;;;;;;13.55;9.68;;;9.30;99.90;;;;;;6302373;22;19926;-71
2021/12/13 09:39:06;;;;;;;15.70;9.18;;;9.30;99.90;;;;;;6299690;22;20019;-71
2021/12/13 09:41:35;;;;;;;18.45;11.60;;;9.30;99.90;;;;;;6145892;23;20552;-71
2021/12/13 09:44:11;;;;;;;16.05;10.00;;;9.30;99.90;;;;;;6265222;22;20042;-71
2021/12/13 09:46:52;;;;;;;15.20;8.32;;;9.30;99.90;;;;;;6273430;22;20443;-71
2021/12/13 09:49:31;;;;;;;19.67;10.35;;;9.30;99.90;;;;;;6272943;22;20019;-71
2021/12/13 09:52:11;;;;;;;16.35;9.85;;;9.30;99.90;;;;;;6274408;22;20109;-71
2021/12/13 09:55:12;;;;;;;14.27;9.98;;;9.40;99.90;;;;;;6273225;22;20022;-71
2021/12/13 09:58:02;;;;;;;18.15;10.77;;;9.40;99.90;;;;;;6274365;22;20076;-71
2021/12/13 10:00:34;;;;;;;12.23;8.50;;;9.50;99.90;;;;;;6273991;22;20080;-71
2021/12/13 10:03:08;;;;;;;18.00;12.80;;;9.50;99.90;;;;;;6273312;22;20023;-71
2021/12/13 10:05:38;;;;;;;16.30;10.90;;;9.50;99.90;;;;;;6275170;22;20011;-71
2021/12/13 10:08:08;;;;;;;19.73;11.30;;;9.50;99.90;;;;;;6301649;22;20023;-71
2021/12/13 10:10:43;;;;;;;13.65;9.57;;;9.50;99.90;;;;;;6300092;22;20103;-71
2021/12/13 10:13:14;;;;;;;17.38;10.18;;;9.50;99.90;;;;;;6298702;22;20046;-71
2021/12/13 10:15:48;;;;;;;13.68;9.98;;;9.50;99.90;;;;;;6295809;22;20019;-71
2021/12/13 10:18:19;;;;;;;12.40;7.45;;;9.50;99.90;;;;;;6296492;22;20038;-71
2021/12/13 10:20:50;;;;;;;17.73;9.93;;;9.50;99.90;;;;;;6299365;22;20073;-71
2021/12/13 10:23:21;;;;;;;16.65;10.43;;;9.50;99.90;;;;;;6299041;22;20043;-72
2021/12/13 10:25:50;;;;;;;18.77;9.95;;;9.50;99.90;;;;;;6300968;22;20090;-72
2021/12/13 10:28:26;;;;;;;16.92;10.65;;;9.50;99.90;;;;;;6299820;22;20452;-72
2021/12/13 10:31:18;;;;;;;16.63;9.82;;;9.60;99.90;;;;;;6299953;22;20065;-71
2021/12/13 10:33:44;;;;;;;15.57;9.88;;;9.60;99.90;;;;;;6298672;22;20137;-72
2021/12/13 10:36:11;;;;;;;15.93;11.15;;;9.60;99.90;;;;;;6299760;22;20065;-72
2021/12/13 10:38:41;;;;;;;14.65;8.93;;;9.70;99.90;;;;;;6300293;22;20085;-72
2021/12/13 10:41:14;;;;;;;17.67;10.60;;;9.70;99.90;;;;;;6299920;22;20098;-71
2021/12/13 10:43:49;;;;;;;20.98;11.88;;;9.70;99.90;;;;;;6299104;22;20011;-71
2021/12/13 10:46:20;;;;;;;18.05;12.77;;;9.70;99.90;;;;;;6301327;22;20355;-71
2021/12/13 10:48:50;;;;;;;15.85;11.15;;;9.70;99.90;;;;;;6270649;22;20545;-71
2021/12/13 10:51:22;;;;;;;21.90;13.13;;;9.70;99.90;;;;;;6299707;22;20098;-71
2021/12/13 10:53:49;;;;;;;18.00;13.43;;;9.70;99.90;;;;;;6274454;22;20393;-72
2021/12/13 10:56:21;;;;;;;18.90;12.82;;;9.70;99.90;;;;;;6301149;22;20442;-72
2021/12/13 10:58:52;;;;;;;16.42;10.55;;;9.70;99.90;;;;;;6272161;22;20020;-72
2021/12/13 11:01:22;;;;;;;18.27;12.77;;;9.70;99.90;;;;;;6298899;22;20093;-72
2021/12/13 11:03:50;;;;;;;21.92;13.32;;;9.70;99.90;;;;;;6269475;22;20015;-71
2021/12/13 11:06:17;;;;;;;22.58;13.88;;;9.70;99.90;;;;;;6270638;22;20354;-71
2021/12/13 11:08:44;;;;;;;22.55;14.25;;;9.70;99.90;;;;;;6271684;22;20015;-71
2021/12/13 11:11:13;;;;;;;24.20;13.48;;;9.70;99.90;;;;;;6271662;22;20027;-71
2021/12/13 11:13:39;;;;;;;20.33;13.23;;;9.70;99.90;;;;;;6272348;22;20110;-71
2021/12/13 11:16:22;;;;;;;21.45;13.82;;;9.70;99.90;;;;;;6272864;22;20247;-71
2021/12/13 11:18:49;;;;;;;22.67;14.23;;;9.70;99.90;;;;;;6270696;22;20411;-71
2021/12/13 11:21:25;;;;;;;32.88;14.90;;;9.70;99.90;;;;;;6260179;22;20415;-71
2021/12/13 11:23:52;;;;;;;21.80;13.85;;;9.70;99.90;;;;;;6273411;22;20361;-71
2021/12/13 11:26:20;;;;;;;20.88;13.40;;;9.80;99.90;;;;;;6273358;22;20015;-71
2021/12/13 11:28:47;;;;;;;24.38;13.88;;;9.80;99.90;;;;;;6273811;22;20011;-71
2021/12/13 11:31:27;;;;;;;15.77;9.15;;;9.80;99.90;;;;;;6260003;22;20084;-71
2021/12/13 11:34:02;;;;;;;22.52;12.73;;;9.90;99.90;;;;;;6269637;22;20313;-71
2021/12/13 11:37:03;;;;;;;20.55;11.25;;;9.90;99.90;;;;;;6298503;22;20015;-71
2021/12/13 11:39:56;;;;;;;18.92;11.93;;;9.90;99.90;;;;;;6298783;22;20026;-71
2021/12/13 11:42:34;;;;;;;20.23;11.77;;;10.00;99.90;;;;;;6269815;22;20096;-72
2021/12/13 11:45:26;;;;;;;22.50;12.57;;;9.90;99.90;;;;;;6271132;22;20102;-71
2021/12/13 11:48:23;;;;;;;22.55;13.32;;;9.90;99.90;;;;;;6271055;22;20026;-71
2021/12/13 11:51:16;;;;;;;18.27;11.82;;;10.00;99.90;;;;;;6273628;22;20019;-71
2021/12/13 11:53:48;;;;;;;18.08;11.40;;;10.00;99.90;;;;;;6299794;22;20008;-71
2021/12/13 11:56:45;;;;;;;19.50;11.55;;;10.10;99.90;;;;;;6267662;22;20502;-72
2021/12/13 11:59:51;;;;;;;19.30;10.85;;;10.10;99.90;;;;;;6267924;22;20019;-72
2021/12/13 12:03:00;;;;;;;13.63;9.00;;;10.10;99.90;;;;;;6266412;22;20101;-71
2021/12/13 12:06:02;;;;;;;13.05;8.98;;;10.20;99.90;;;;;;6267374;22;20023;-71
2021/12/13 12:08:31;;;;;;;16.58;9.73;;;10.20;99.90;;;;;;6262673;22;20098;-72
2021/12/13 12:11:46;;;;;;;16.65;7.88;;;10.20;99.90;;;;;;6265207;22;20404;-72
2021/12/13 12:14:12;;;;;;;19.33;10.07;;;10.30;99.90;;;;;;6268204;22;20058;-71
2021/12/13 12:16:46;;;;;;;16.38;9.70;;;10.30;99.90;;;;;;6272288;22;20431;-72
2021/12/13 12:19:19;;;;;;;18.48;9.38;;;10.30;99.90;;;;;;6293040;22;20446;-72
2021/12/13 12:21:58;;;;;;;13.23;8.73;;;10.40;99.90;;;;;;6293387;22;20089;-72
2021/12/13 12:24:46;;;;;;;17.80;10.32;;;10.30;99.90;;;;;;6266923;22;20019;-72
2021/12/13 12:27:19;;;;;;;20.10;11.25;;;10.30;99.90;;;;;;6265524;22;20114;-72
2021/12/13 12:29:52;;;;;;;15.63;9.88;;;10.40;99.90;;;;;;6271367;22;20047;-72
2021/12/13 12:32:21;;;;;;;16.65;10.20;;;10.40;99.90;;;;;;6271942;22;20516;-72
2021/12/13 12:35:02;;;;;;;17.25;10.80;;;10.30;99.90;;;;;;6296867;22;20023;-74
2021/12/13 12:37:30;;;;;;;18.45;10.63;;;10.40;99.90;;;;;;6267924;22;20351;-73
2021/12/13 12:40:08;;;;;;;19.63;10.13;;;10.40;99.90;;;;;;6269447;22;20023;-73
2021/12/13 12:42:43;;;;;;;16.75;9.15;;;10.30;99.90;;;;;;6270126;22;20478;-73
2021/12/13 12:45:24;;;;;;;12.98;8.10;;;10.30;99.90;;;;;;6268227;22;20035;-72
2021/12/13 12:47:49;;;;;;;15.05;10.68;;;10.30;99.90;;;;;;6273167;22;20324;-72
2021/12/13 12:50:20;;;;;;;15.02;9.93;;;10.30;99.90;;;;;;6273583;22;20121;-73
2021/12/13 12:52:55;;;;;;;20.23;10.00;;;10.30;99.90;;;;;;6273718;22;20039;-74
2021/12/13 12:55:26;;;;;;;20.58;11.10;;;10.30;99.90;;;;;;6273145;22;20015;-72
2021/12/13 12:57:52;;;;;;;21.27;10.70;;;10.30;99.90;;;;;;6273707;22;20093;-71
2021/12/13 13:00:27;;;;;;;15.10;10.00;;;10.30;99.90;;;;;;6274626;22;20011;-77
2021/12/13 13:02:53;;;;;;;14.68;9.25;;;10.20;99.90;;;;;;6268698;22;20015;-73
2021/12/13 13:05:22;;;;;;;19.48;10.13;;;10.30;99.90;;;;;;6273046;22;20111;-72
2021/12/13 13:07:51;;;;;;;19.50;10.65;;;10.30;99.90;;;;;;6273955;22;20019;-72
2021/12/13 13:10:54;;;;;;;16.95;9.95;;;10.30;99.90;;;;;;6272870;22;20126;-73
2021/12/13 13:13:13;;;;;;;18.98;10.75;;;10.30;99.90;;;;;;6282117;22;20019;-73
2021/12/13 13:15:41;;;;;;;15.27;10.05;;;10.30;99.90;;;;;;6301364;22;20090;-72
2021/12/13 13:18:13;;;;;;;16.83;8.77;;;10.40;99.90;;;;;;6272758;22;20319;-72
2021/12/13 13:20:55;;;;;;;18.30;9.38;;;10.30;99.90;;;;;;6274461;22;20477;-73
2021/12/13 13:23:25;;;;;;;18.60;10.15;;;10.30;99.90;;;;;;6275654;22;20042;-72
2021/12/13 13:25:56;;;;;;;15.82;8.52;;;10.30;99.90;;;;;;6272682;22;20030;-72
2021/12/13 13:28:55;;;;;;;;;;;;;;;;;;;;;
2021/12/13 13:31:37;;;;;;;17.98;9.93;;;10.30;99.90;;;;;;6259417;22;20074;-72